sensor_id;sensor_type;location;lat;lon;timestamp;temperature;humidity
21149;DHT22;10732;51.472;6.466;2022-11-30T00:00:04;7.00;99.90
21149;DHT22;10732;51.472;6.466;2022-11-30T00:02:30;7.00;99.90
21149;DHT22;10732;51.472;6.466;2022-11-30T00:04:56;6.90;99.90
21149;DHT22;10732;51.472;6.466;2022-11-30T00:07:21;6.90;99.90
21149;DHT22;10732;51.472;6.466;2022-11-30T00:09:47;7.00;99.90
21149;DHT22;10732;51.472;6.466;2022-11-30T00:12:12;7.00;99.90
21149;DHT22;10732;51.472;6.466;2022-11-30T00:14:38;7.00;99.90
21149;DHT22;10732;51.472;6.466;2022-11-30T00:17:03;7.00;99.90
21149;DHT22;10732;51.472;6.466;2022-11-30T00:19:29;7.10;99.90
21149;DHT22;10732;51.472;6.466;2022-11-30T00:21:54;7.10;99.90
21149;DHT22;10732;51.472;6.466;2022-11-30T00:24:20;7.10;99.90
21149;DHT22;10732;51.472;6.466;2022-11-30T00:26:45;7.10;99.90
21149;DHT22;10732;51.472;6.466;2022-11-30T00:29:11;7.10;99.90
21149;DHT22;10732;51.472;6.466;2022-11-30T00:31:37;7.10;99.90
21149;DHT22;10732;51.472;6.466;2022-11-30T00:34:02;7.10;99.90
21149;DHT22;10732;51.472;6.466;2022-11-30T00:36:28;7.20;99.90
21149;DHT22;10732;51.472;6.466;2022-11-30T00:38:54;7.20;99.90
21149;DHT22;10732;51.472;6.466;2022-11-30T00:41:20;7.20;99.90
21149;DHT22;10732;51.472;6.466;2022-11-30T00:43:46;7.20;99.90
21149;DHT22;10732;51.472;6.466;2022-11-30T00:46:11;7.30;99.90
21149;DHT22;10732;51.472;6.466;2022-11-30T00:48:38;7.20;99.90
21149;DHT22;10732;51.472;6.466;2022-11-30T00:51:05;7.20;99.90
21149;DHT22;10732;51.472;6.466;2022-11-30T00:53:31;7.20;99.90
21149;DHT22;10732;51.472;6.466;2022-11-30T00:55:56;7.20;99.90
21149;DHT22;10732;51.472;6.466;2022-11-30T00:58:22;7.20;99.90
21149;DHT22;10732;51.472;6.466;2022-11-30T01:00:48;7.20;99.90
21149;DHT22;10732;51.472;6.466;2022-11-30T01:03:14;7.20;99.90
21149;DHT22;10732;51.472;6.466;2022-11-30T01:05:40;7.20;99.90
21149;DHT22;10732;51.472;6.466;2022-11-30T01:08:08;7.20;99.90
21149;DHT22;10732;51.472;6.466;2022-11-30T01:10:34;7.10;99.90
21149;DHT22;10732;51.472;6.466;2022-11-30T01:13:01;7.10;99.90
21149;DHT22;10732;51.472;6.466;2022-11-30T01:15:27;7.00;99.90
21149;DHT22;10732;51.472;6.466;2022-11-30T01:17:52;7.00;99.90
21149;DHT22;10732;51.472;6.466;2022-11-30T01:20:18;7.00;99.90
21149;DHT22;10732;51.472;6.466;2022-11-30T01:22:44;7.00;99.90
21149;DHT22;10732;51.472;6.466;2022-11-30T01:25:09;7.00;99.90
21149;DHT22;10732;51.472;6.466;2022-11-30T01:27:35;6.90;99.90
21149;DHT22;10732;51.472;6.466;2022-11-30T01:30:01;7.00;99.90
21149;DHT22;10732;51.472;6.466;2022-11-30T01:32:27;7.00;99.90
21149;DHT22;10732;51.472;6.466;2022-11-30T01:34:53;6.90;99.90
21149;DHT22;10732;51.472;6.466;2022-11-30T01:37:18;7.00;99.90
21149;DHT22;10732;51.472;6.466;2022-11-30T01:39:44;6.90;99.90
21149;DHT22;10732;51.472;6.466;2022-11-30T01:42:14;7.00;99.90
21149;DHT22;10732;51.472;6.466;2022-11-30T01:47:15;6.90;99.90
21149;DHT22;10732;51.472;6.466;2022-11-30T01:49:49;6.90;99.90
21149;DHT22;10732;51.472;6.466;2022-11-30T01:52:20;6.80;99.90
21149;DHT22;10732;51.472;6.466;2022-11-30T01:54:58;6.90;99.90
21149;DHT22;10732;51.472;6.466;2022-11-30T01:57:33;7.00;99.90
21149;DHT22;10732;51.472;6.466;2022-11-30T02:00:02;7.00;99.90
21149;DHT22;10732;51.472;6.466;2022-11-30T02:05:07;7.00;99.90
21149;DHT22;10732;51.472;6.466;2022-11-30T02:07:33;6.90;99.90
21149;DHT22;10732;51.472;6.466;2022-11-30T02:09:59;7.00;99.90
21149;DHT22;10732;51.472;6.466;2022-11-30T02:14:57;6.90;99.90
21149;DHT22;10732;51.472;6.466;2022-11-30T02:20:20;7.00;99.90
21149;DHT22;10732;51.472;6.466;2022-11-30T02:23:02;6.90;99.90
21149;DHT22;10732;51.472;6.466;2022-11-30T02:25:55;6.90;99.90
21149;DHT22;10732;51.472;6.466;2022-11-30T02:31:39;6.90;99.90
21149;DHT22;10732;51.472;6.466;2022-11-30T02:34:07;6.90;99.90
21149;DHT22;10732;51.472;6.466;2022-11-30T02:36:34;6.80;99.90
21149;DHT22;10732;51.472;6.466;2022-11-30T02:39:00;6.80;99.90
21149;DHT22;10732;51.472;6.466;2022-11-30T02:41:25;6.80;99.90
21149;DHT22;10732;51.472;6.466;2022-11-30T02:43:51;6.80;99.90
21149;DHT22;10732;51.472;6.466;2022-11-30T02:46:35;6.80;99.90
21149;DHT22;10732;51.472;6.466;2022-11-30T02:49:16;6.80;99.90
21149;DHT22;10732;51.472;6.466;2022-11-30T02:51:44;6.80;99.90
21149;DHT22;10732;51.472;6.466;2022-11-30T02:54:11;6.80;99.90
21149;DHT22;10732;51.472;6.466;2022-11-30T02:56:37;6.80;99.90
21149;DHT22;10732;51.472;6.466;2022-11-30T02:59:03;6.80;99.90
21149;DHT22;10732;51.472;6.466;2022-11-30T03:01:28;6.80;99.90
21149;DHT22;10732;51.472;6.466;2022-11-30T03:03:54;6.70;99.90
21149;DHT22;10732;51.472;6.466;2022-11-30T03:06:19;6.70;99.90
21149;DHT22;10732;51.472;6.466;2022-11-30T03:08:45;6.70;99.90
21149;DHT22;10732;51.472;6.466;2022-11-30T03:11:10;6.70;99.90
21149;DHT22;10732;51.472;6.466;2022-11-30T03:13:36;6.70;99.90
21149;DHT22;10732;51.472;6.466;2022-11-30T03:16:12;6.70;99.90
21149;DHT22;10732;51.472;6.466;2022-11-30T03:18:38;6.70;99.90
21149;DHT22;10732;51.472;6.466;2022-11-30T03:21:08;6.60;99.90
21149;DHT22;10732;51.472;6.466;2022-11-30T03:23:33;6.60;99.90
21149;DHT22;10732;51.472;6.466;2022-11-30T03:26:00;6.60;99.90
21149;DHT22;10732;51.472;6.466;2022-11-30T03:28:26;6.50;99.90
21149;DHT22;10732;51.472;6.466;2022-11-30T03:30:52;6.50;99.90
21149;DHT22;10732;51.472;6.466;2022-11-30T03:33:17;6.50;99.90
21149;DHT22;10732;51.472;6.466;2022-11-30T03:35:43;6.40;99.90
21149;DHT22;10732;51.472;6.466;2022-11-30T03:38:09;6.40;99.90
21149;DHT22;10732;51.472;6.466;2022-11-30T03:40:38;6.30;99.90
21149;DHT22;10732;51.472;6.466;2022-11-30T03:43:03;6.30;99.90
21149;DHT22;10732;51.472;6.466;2022-11-30T03:45:29;6.20;99.90
21149;DHT22;10732;51.472;6.466;2022-11-30T03:47:55;6.20;99.90
21149;DHT22;10732;51.472;6.466;2022-11-30T03:50:21;6.20;99.90
21149;DHT22;10732;51.472;6.466;2022-11-30T03:52:47;6.10;99.90
21149;DHT22;10732;51.472;6.466;2022-11-30T03:55:12;6.10;99.90
21149;DHT22;10732;51.472;6.466;2022-11-30T03:57:38;6.00;99.90
21149;DHT22;10732;51.472;6.466;2022-11-30T04:00:06;5.90;99.90
21149;DHT22;10732;51.472;6.466;2022-11-30T04:02:32;5.90;99.90
21149;DHT22;10732;51.472;6.466;2022-11-30T04:04:57;5.90;99.90
21149;DHT22;10732;51.472;6.466;2022-11-30T04:07:23;5.90;99.90
21149;DHT22;10732;51.472;6.466;2022-11-30T04:09:48;5.80;99.90
21149;DHT22;10732;51.472;6.466;2022-11-30T04:12:14;5.70;99.90
21149;DHT22;10732;51.472;6.466;2022-11-30T04:14:39;5.70;99.90
21149;DHT22;10732;51.472;6.466;2022-11-30T04:17:05;5.60;99.90
21149;DHT22;10732;51.472;6.466;2022-11-30T04:19:31;5.50;99.90
21149;DHT22;10732;51.472;6.466;2022-11-30T04:21:56;5.40;99.90
21149;DHT22;10732;51.472;6.466;2022-11-30T04:24:22;5.30;99.90
21149;DHT22;10732;51.472;6.466;2022-11-30T04:26:47;5.20;99.90
21149;DHT22;10732;51.472;6.466;2022-11-30T04:29:13;5.20;99.90
21149;DHT22;10732;51.472;6.466;2022-11-30T04:31:38;5.10;99.90
21149;DHT22;10732;51.472;6.466;2022-11-30T04:34:04;5.00;99.90
21149;DHT22;10732;51.472;6.466;2022-11-30T04:36:29;5.00;99.90
21149;DHT22;10732;51.472;6.466;2022-11-30T04:38:55;5.00;99.90
21149;DHT22;10732;51.472;6.466;2022-11-30T04:41:20;5.00;99.90
21149;DHT22;10732;51.472;6.466;2022-11-30T04:43:46;4.90;99.90
21149;DHT22;10732;51.472;6.466;2022-11-30T04:46:11;4.90;99.90
21149;DHT22;10732;51.472;6.466;2022-11-30T04:48:37;4.90;99.90
21149;DHT22;10732;51.472;6.466;2022-11-30T04:51:04;4.80;99.90
21149;DHT22;10732;51.472;6.466;2022-11-30T04:53:31;4.80;99.90
21149;DHT22;10732;51.472;6.466;2022-11-30T04:55:57;4.90;99.90
21149;DHT22;10732;51.472;6.466;2022-11-30T04:58:23;5.00;99.90
21149;DHT22;10732;51.472;6.466;2022-11-30T05:00:49;5.10;99.90
21149;DHT22;10732;51.472;6.466;2022-11-30T05:03:14;5.20;99.90
21149;DHT22;10732;51.472;6.466;2022-11-30T05:05:40;5.30;99.90
21149;DHT22;10732;51.472;6.466;2022-11-30T05:08:05;5.40;99.90
21149;DHT22;10732;51.472;6.466;2022-11-30T05:10:31;5.40;99.90
21149;DHT22;10732;51.472;6.466;2022-11-30T05:12:58;5.50;99.90
21149;DHT22;10732;51.472;6.466;2022-11-30T05:15:24;5.50;99.90
21149;DHT22;10732;51.472;6.466;2022-11-30T05:17:49;5.50;99.90
21149;DHT22;10732;51.472;6.466;2022-11-30T05:20:15;5.50;99.90
21149;DHT22;10732;51.472;6.466;2022-11-30T05:22:41;5.50;99.90
21149;DHT22;10732;51.472;6.466;2022-11-30T05:25:06;5.40;99.90
21149;DHT22;10732;51.472;6.466;2022-11-30T05:27:32;5.30;99.90
21149;DHT22;10732;51.472;6.466;2022-11-30T05:29:59;5.20;99.90
21149;DHT22;10732;51.472;6.466;2022-11-30T05:32:25;5.10;99.90
21149;DHT22;10732;51.472;6.466;2022-11-30T05:34:50;5.00;99.90
21149;DHT22;10732;51.472;6.466;2022-11-30T05:37:16;4.90;99.90
21149;DHT22;10732;51.472;6.466;2022-11-30T05:39:41;4.80;99.90
21149;DHT22;10732;51.472;6.466;2022-11-30T05:42:07;4.70;99.90
21149;DHT22;10732;51.472;6.466;2022-11-30T05:44:33;4.60;99.90
21149;DHT22;10732;51.472;6.466;2022-11-30T05:46:58;4.60;99.90
21149;DHT22;10732;51.472;6.466;2022-11-30T05:49:24;4.50;99.90
21149;DHT22;10732;51.472;6.466;2022-11-30T05:51:49;4.50;99.90
21149;DHT22;10732;51.472;6.466;2022-11-30T05:54:15;4.40;99.90
21149;DHT22;10732;51.472;6.466;2022-11-30T05:56:41;4.30;99.90
21149;DHT22;10732;51.472;6.466;2022-11-30T05:59:08;4.30;99.90
21149;DHT22;10732;51.472;6.466;2022-11-30T06:01:33;4.20;99.90
21149;DHT22;10732;51.472;6.466;2022-11-30T06:03:59;4.20;99.90
21149;DHT22;10732;51.472;6.466;2022-11-30T06:06:24;4.10;99.90
21149;DHT22;10732;51.472;6.466;2022-11-30T06:08:50;4.00;99.90
21149;DHT22;10732;51.472;6.466;2022-11-30T06:11:15;3.90;99.90
21149;DHT22;10732;51.472;6.466;2022-11-30T06:13:41;3.80;99.90
21149;DHT22;10732;51.472;6.466;2022-11-30T06:16:07;3.80;99.90
21149;DHT22;10732;51.472;6.466;2022-11-30T06:18:33;3.70;99.90
21149;DHT22;10732;51.472;6.466;2022-11-30T06:21:01;3.60;99.90
21149;DHT22;10732;51.472;6.466;2022-11-30T06:23:27;3.60;99.90
21149;DHT22;10732;51.472;6.466;2022-11-30T06:25:52;3.60;99.90
21149;DHT22;10732;51.472;6.466;2022-11-30T06:28:18;3.60;99.90
21149;DHT22;10732;51.472;6.466;2022-11-30T06:30:44;3.60;99.90
21149;DHT22;10732;51.472;6.466;2022-11-30T06:33:09;3.60;99.90
21149;DHT22;10732;51.472;6.466;2022-11-30T06:35:35;3.60;99.90
21149;DHT22;10732;51.472;6.466;2022-11-30T06:38:00;3.70;99.90
21149;DHT22;10732;51.472;6.466;2022-11-30T06:40:26;3.70;99.90
21149;DHT22;10732;51.472;6.466;2022-11-30T06:42:53;3.70;99.90
21149;DHT22;10732;51.472;6.466;2022-11-30T06:45:18;3.70;99.90
21149;DHT22;10732;51.472;6.466;2022-11-30T06:47:44;3.70;99.90
21149;DHT22;10732;51.472;6.466;2022-11-30T06:50:11;3.70;99.90
21149;DHT22;10732;51.472;6.466;2022-11-30T06:52:37;3.70;99.90
21149;DHT22;10732;51.472;6.466;2022-11-30T06:55:02;3.70;99.90
21149;DHT22;10732;51.472;6.466;2022-11-30T06:57:28;3.70;99.90
21149;DHT22;10732;51.472;6.466;2022-11-30T06:59:55;3.70;99.90
21149;DHT22;10732;51.472;6.466;2022-11-30T07:02:21;3.70;99.90
21149;DHT22;10732;51.472;6.466;2022-11-30T07:04:46;3.70;99.90
21149;DHT22;10732;51.472;6.466;2022-11-30T07:07:12;3.70;99.90
21149;DHT22;10732;51.472;6.466;2022-11-30T07:09:37;3.80;99.90
21149;DHT22;10732;51.472;6.466;2022-11-30T07:12:04;3.90;99.90
21149;DHT22;10732;51.472;6.466;2022-11-30T07:14:29;3.90;99.90
21149;DHT22;10732;51.472;6.466;2022-11-30T07:16:55;4.00;99.90
21149;DHT22;10732;51.472;6.466;2022-11-30T07:19:21;4.00;99.90
21149;DHT22;10732;51.472;6.466;2022-11-30T07:21:46;4.10;99.90
21149;DHT22;10732;51.472;6.466;2022-11-30T07:24:12;4.20;99.90
21149;DHT22;10732;51.472;6.466;2022-11-30T07:27:04;4.30;99.90
21149;DHT22;10732;51.472;6.466;2022-11-30T07:29:30;4.30;99.90
21149;DHT22;10732;51.472;6.466;2022-11-30T07:31:55;4.30;99.90
21149;DHT22;10732;51.472;6.466;2022-11-30T07:34:21;4.40;99.90
21149;DHT22;10732;51.472;6.466;2022-11-30T07:36:47;4.50;99.90
21149;DHT22;10732;51.472;6.466;2022-11-30T07:39:13;4.50;99.90
21149;DHT22;10732;51.472;6.466;2022-11-30T07:41:40;4.50;99.90
21149;DHT22;10732;51.472;6.466;2022-11-30T07:44:07;4.50;99.90
21149;DHT22;10732;51.472;6.466;2022-11-30T07:46:33;4.50;99.90
21149;DHT22;10732;51.472;6.466;2022-11-30T07:49:01;4.60;99.90
21149;DHT22;10732;51.472;6.466;2022-11-30T07:51:27;4.60;99.90
21149;DHT22;10732;51.472;6.466;2022-11-30T07:53:55;4.60;99.90
21149;DHT22;10732;51.472;6.466;2022-11-30T07:56:21;4.70;99.90
21149;DHT22;10732;51.472;6.466;2022-11-30T07:58:47;4.70;99.90
21149;DHT22;10732;51.472;6.466;2022-11-30T08:01:16;4.80;99.90
21149;DHT22;10732;51.472;6.466;2022-11-30T08:03:42;4.80;99.90
21149;DHT22;10732;51.472;6.466;2022-11-30T08:06:10;4.80;99.90
21149;DHT22;10732;51.472;6.466;2022-11-30T08:08:39;4.80;99.90
21149;DHT22;10732;51.472;6.466;2022-11-30T08:11:06;4.90;99.90
21149;DHT22;10732;51.472;6.466;2022-11-30T08:13:32;4.90;99.90
21149;DHT22;10732;51.472;6.466;2022-11-30T08:16:08;5.00;99.90
21149;DHT22;10732;51.472;6.466;2022-11-30T08:18:34;5.00;99.90
21149;DHT22;10732;51.472;6.466;2022-11-30T08:21:02;5.00;99.90
21149;DHT22;10732;51.472;6.466;2022-11-30T08:23:33;5.00;99.90
21149;DHT22;10732;51.472;6.466;2022-11-30T08:26:05;5.00;99.90
21149;DHT22;10732;51.472;6.466;2022-11-30T08:28:32;5.00;99.90
21149;DHT22;10732;51.472;6.466;2022-11-30T08:31:05;5.00;99.90
21149;DHT22;10732;51.472;6.466;2022-11-30T08:33:32;5.10;99.90
21149;DHT22;10732;51.472;6.466;2022-11-30T08:38:37;5.20;99.90
21149;DHT22;10732;51.472;6.466;2022-11-30T08:41:04;5.20;99.90
21149;DHT22;10732;51.472;6.466;2022-11-30T08:43:30;5.30;99.90
21149;DHT22;10732;51.472;6.466;2022-11-30T08:45:56;5.40;99.90
21149;DHT22;10732;51.472;6.466;2022-11-30T08:48:22;5.40;99.90
21149;DHT22;10732;51.472;6.466;2022-11-30T08:50:47;5.30;99.90
21149;DHT22;10732;51.472;6.466;2022-11-30T08:53:13;5.40;99.90
21149;DHT22;10732;51.472;6.466;2022-11-30T08:55:39;5.40;99.90
21149;DHT22;10732;51.472;6.466;2022-11-30T08:58:04;5.50;99.90
21149;DHT22;10732;51.472;6.466;2022-11-30T09:00:30;5.60;99.90
21149;DHT22;10732;51.472;6.466;2022-11-30T09:02:55;5.60;99.90
21149;DHT22;10732;51.472;6.466;2022-11-30T09:05:21;5.70;99.90
21149;DHT22;10732;51.472;6.466;2022-11-30T09:07:47;5.70;99.90
21149;DHT22;10732;51.472;6.466;2022-11-30T09:10:12;5.60;99.90
21149;DHT22;10732;51.472;6.466;2022-11-30T09:12:39;5.70;99.90
21149;DHT22;10732;51.472;6.466;2022-11-30T09:15:07;5.80;99.90
21149;DHT22;10732;51.472;6.466;2022-11-30T09:17:33;5.80;99.90
21149;DHT22;10732;51.472;6.466;2022-11-30T09:19:59;5.80;99.90
21149;DHT22;10732;51.472;6.466;2022-11-30T09:22:25;5.80;99.90
21149;DHT22;10732;51.472;6.466;2022-11-30T09:24:51;5.90;99.90
21149;DHT22;10732;51.472;6.466;2022-11-30T09:27:16;5.90;99.90
21149;DHT22;10732;51.472;6.466;2022-11-30T09:29:42;6.00;99.90
21149;DHT22;10732;51.472;6.466;2022-11-30T09:32:07;6.00;99.90
21149;DHT22;10732;51.472;6.466;2022-11-30T09:34:33;6.00;99.90
21149;DHT22;10732;51.472;6.466;2022-11-30T09:36:58;6.10;99.90
21149;DHT22;10732;51.472;6.466;2022-11-30T09:39:24;6.20;99.90
21149;DHT22;10732;51.472;6.466;2022-11-30T09:42:14;6.20;99.90
21149;DHT22;10732;51.472;6.466;2022-11-30T09:47:45;6.30;99.90
21149;DHT22;10732;51.472;6.466;2022-11-30T09:50:20;6.40;99.90
21149;DHT22;10732;51.472;6.466;2022-11-30T09:53:11;6.40;99.90
21149;DHT22;10732;51.472;6.466;2022-11-30T09:55:41;6.40;99.90
21149;DHT22;10732;51.472;6.466;2022-11-30T09:58:15;6.40;99.90
21149;DHT22;10732;51.472;6.466;2022-11-30T10:00:45;6.40;99.90
21149;DHT22;10732;51.472;6.466;2022-11-30T10:03:12;6.40;99.90
21149;DHT22;10732;51.472;6.466;2022-11-30T10:05:58;6.60;99.90
21149;DHT22;10732;51.472;6.466;2022-11-30T10:08:38;6.60;99.90
21149;DHT22;10732;51.472;6.466;2022-11-30T10:11:37;6.60;99.90
21149;DHT22;10732;51.472;6.466;2022-11-30T10:22:45;6.90;99.90
21149;DHT22;10732;51.472;6.466;2022-11-30T10:25:24;6.90;99.90
21149;DHT22;10732;51.472;6.466;2022-11-30T10:27:56;6.90;99.90
21149;DHT22;10732;51.472;6.466;2022-11-30T10:30:30;7.10;99.90
21149;DHT22;10732;51.472;6.466;2022-11-30T10:33:00;7.10;99.90
21149;DHT22;10732;51.472;6.466;2022-11-30T10:35:52;7.10;99.90
21149;DHT22;10732;51.472;6.466;2022-11-30T10:38:32;7.10;99.90
21149;DHT22;10732;51.472;6.466;2022-11-30T10:41:14;7.20;99.90
21149;DHT22;10732;51.472;6.466;2022-11-30T10:43:53;7.20;99.90
21149;DHT22;10732;51.472;6.466;2022-11-30T10:46:30;7.10;99.90
21149;DHT22;10732;51.472;6.466;2022-11-30T10:49:02;7.10;99.90
21149;DHT22;10732;51.472;6.466;2022-11-30T10:51:30;7.10;99.90
21149;DHT22;10732;51.472;6.466;2022-11-30T10:53:57;7.10;99.90
21149;DHT22;10732;51.472;6.466;2022-11-30T10:56:22;7.10;99.90
21149;DHT22;10732;51.472;6.466;2022-11-30T10:58:57;7.10;99.90
21149;DHT22;10732;51.472;6.466;2022-11-30T11:01:35;7.20;99.90
21149;DHT22;10732;51.472;6.466;2022-11-30T11:04:16;7.10;99.90
21149;DHT22;10732;51.472;6.466;2022-11-30T11:06:56;7.20;99.90
21149;DHT22;10732;51.472;6.466;2022-11-30T11:09:48;6.90;99.90
21149;DHT22;10732;51.472;6.466;2022-11-30T11:12:20;6.80;99.90
21149;DHT22;10732;51.472;6.466;2022-11-30T11:14:46;6.90;99.90
21149;DHT22;10732;51.472;6.466;2022-11-30T11:19:45;6.90;99.90
21149;DHT22;10732;51.472;6.466;2022-11-30T11:22:22;7.00;99.90
21149;DHT22;10732;51.472;6.466;2022-11-30T11:24:49;7.10;99.90
21149;DHT22;10732;51.472;6.466;2022-11-30T11:27:24;7.20;99.90
21149;DHT22;10732;51.472;6.466;2022-11-30T11:32:28;7.10;99.90
21149;DHT22;10732;51.472;6.466;2022-11-30T11:34:55;7.20;99.90
21149;DHT22;10732;51.472;6.466;2022-11-30T11:40:13;7.00;99.90
21149;DHT22;10732;51.472;6.466;2022-11-30T11:42:51;7.10;99.90
21149;DHT22;10732;51.472;6.466;2022-11-30T11:45:21;7.10;99.90
21149;DHT22;10732;51.472;6.466;2022-11-30T11:47:56;7.10;99.90
21149;DHT22;10732;51.472;6.466;2022-11-30T11:55:41;7.20;99.90
21149;DHT22;10732;51.472;6.466;2022-11-30T11:58:13;7.20;99.90
21149;DHT22;10732;51.472;6.466;2022-11-30T12:00:40;7.30;99.90
21149;DHT22;10732;51.472;6.466;2022-11-30T12:06:13;7.30;99.90
21149;DHT22;10732;51.472;6.466;2022-11-30T12:08:47;7.20;99.90
21149;DHT22;10732;51.472;6.466;2022-11-30T12:11:44;7.30;99.90
21149;DHT22;10732;51.472;6.466;2022-11-30T12:14:11;7.40;99.90
21149;DHT22;10732;51.472;6.466;2022-11-30T12:17:00;7.40;99.90
21149;DHT22;10732;51.472;6.466;2022-11-30T12:19:35;7.40;99.90
21149;DHT22;10732;51.472;6.466;2022-11-30T12:33:39;7.20;99.90
21149;DHT22;10732;51.472;6.466;2022-11-30T12:36:38;7.20;99.90
21149;DHT22;10732;51.472;6.466;2022-11-30T12:39:29;7.30;99.90
21149;DHT22;10732;51.472;6.466;2022-11-30T12:42:11;7.40;99.90
21149;DHT22;10732;51.472;6.466;2022-11-30T12:45:02;7.40;99.90
21149;DHT22;10732;51.472;6.466;2022-11-30T12:53:33;7.30;99.90
21149;DHT22;10732;51.472;6.466;2022-11-30T12:58:58;7.50;99.90
21149;DHT22;10732;51.472;6.466;2022-11-30T13:01:56;7.50;99.90
21149;DHT22;10732;51.472;6.466;2022-11-30T13:04:35;7.40;99.90
21149;DHT22;10732;51.472;6.466;2022-11-30T13:07:08;7.40;99.90
21149;DHT22;10732;51.472;6.466;2022-11-30T13:09:59;7.30;99.90
21149;DHT22;10732;51.472;6.466;2022-11-30T13:12:33;7.50;99.90
21149;DHT22;10732;51.472;6.466;2022-11-30T13:15:12;7.60;99.90
21149;DHT22;10732;51.472;6.466;2022-11-30T13:17:39;7.50;99.90
21149;DHT22;10732;51.472;6.466;2022-11-30T13:28:10;7.50;99.90
21149;DHT22;10732;51.472;6.466;2022-11-30T13:36:35;7.40;99.90
21149;DHT22;10732;51.472;6.466;2022-11-30T13:41:40;7.30;99.90
21149;DHT22;10732;51.472;6.466;2022-11-30T13:44:29;7.40;99.90
21149;DHT22;10732;51.472;6.466;2022-11-30T13:46:56;7.40;99.90
21149;DHT22;10732;51.472;6.466;2022-11-30T13:49:30;7.40;99.90
21149;DHT22;10732;51.472;6.466;2022-11-30T13:51:57;7.30;99.90
21149;DHT22;10732;51.472;6.466;2022-11-30T14:00:43;7.40;99.90
21149;DHT22;10732;51.472;6.466;2022-11-30T14:05:46;7.30;99.90
21149;DHT22;10732;51.472;6.466;2022-11-30T14:08:29;7.20;99.90
21149;DHT22;10732;51.472;6.466;2022-11-30T14:13:43;7.30;99.90
21149;DHT22;10732;51.472;6.466;2022-11-30T14:16:26;7.30;99.90
21149;DHT22;10732;51.472;6.466;2022-11-30T14:18:54;7.20;99.90
21149;DHT22;10732;51.472;6.466;2022-11-30T14:21:30;7.20;99.90
21149;DHT22;10732;51.472;6.466;2022-11-30T14:24:16;7.20;99.90
21149;DHT22;10732;51.472;6.466;2022-11-30T14:26:45;7.20;99.90
21149;DHT22;10732;51.472;6.466;2022-11-30T14:29:29;7.10;99.90
21149;DHT22;10732;51.472;6.466;2022-11-30T14:32:24;7.10;99.90
21149;DHT22;10732;51.472;6.466;2022-11-30T14:35:00;7.20;99.90
21149;DHT22;10732;51.472;6.466;2022-11-30T14:37:40;7.10;99.90
21149;DHT22;10732;51.472;6.466;2022-11-30T14:40:14;7.10;99.90
21149;DHT22;10732;51.472;6.466;2022-11-30T14:42:46;7.00;99.90
21149;DHT22;10732;51.472;6.466;2022-11-30T14:45:40;7.00;99.90
21149;DHT22;10732;51.472;6.466;2022-11-30T14:48:10;7.00;99.90
21149;DHT22;10732;51.472;6.466;2022-11-30T14:50:41;7.10;99.90
21149;DHT22;10732;51.472;6.466;2022-11-30T15:01:41;7.00;99.90
21149;DHT22;10732;51.472;6.466;2022-11-30T15:04:13;6.90;99.90
21149;DHT22;10732;51.472;6.466;2022-11-30T15:06:40;6.90;99.90
21149;DHT22;10732;51.472;6.466;2022-11-30T15:09:18;6.90;99.90
21149;DHT22;10732;51.472;6.466;2022-11-30T15:11:46;6.90;99.90
21149;DHT22;10732;51.472;6.466;2022-11-30T15:14:12;6.90;99.90
21149;DHT22;10732;51.472;6.466;2022-11-30T15:16:49;7.00;99.90
21149;DHT22;10732;51.472;6.466;2022-11-30T15:19:26;7.00;99.90
21149;DHT22;10732;51.472;6.466;2022-11-30T15:21:53;6.90;99.90
21149;DHT22;10732;51.472;6.466;2022-11-30T15:24:19;6.90;99.90
21149;DHT22;10732;51.472;6.466;2022-11-30T15:26:56;6.90;99.90
21149;DHT22;10732;51.472;6.466;2022-11-30T15:29:44;6.90;99.90
21149;DHT22;10732;51.472;6.466;2022-11-30T15:32:19;6.80;99.90
21149;DHT22;10732;51.472;6.466;2022-11-30T15:34:55;6.80;99.90
21149;DHT22;10732;51.472;6.466;2022-11-30T15:37:33;6.90;99.90
21149;DHT22;10732;51.472;6.466;2022-11-30T15:40:02;6.80;99.90
21149;DHT22;10732;51.472;6.466;2022-11-30T15:42:32;6.80;99.90
21149;DHT22;10732;51.472;6.466;2022-11-30T15:45:23;6.80;99.90
21149;DHT22;10732;51.472;6.466;2022-11-30T15:47:50;6.80;99.90
21149;DHT22;10732;51.472;6.466;2022-11-30T15:50:31;6.80;99.90
21149;DHT22;10732;51.472;6.466;2022-11-30T15:55:49;6.80;99.90
21149;DHT22;10732;51.472;6.466;2022-11-30T16:01:20;6.80;99.90
21149;DHT22;10732;51.472;6.466;2022-11-30T16:06:33;6.70;99.90
21149;DHT22;10732;51.472;6.466;2022-11-30T16:09:44;6.70;99.90
21149;DHT22;10732;51.472;6.466;2022-11-30T16:11:54;6.70;99.90
21149;DHT22;10732;51.472;6.466;2022-11-30T16:14:22;6.70;99.90
21149;DHT22;10732;51.472;6.466;2022-11-30T16:16:47;6.60;99.90
21149;DHT22;10732;51.472;6.466;2022-11-30T16:19:13;6.60;99.90
21149;DHT22;10732;51.472;6.466;2022-11-30T16:21:39;6.60;99.90
21149;DHT22;10732;51.472;6.466;2022-11-30T16:24:05;6.60;99.90
21149;DHT22;10732;51.472;6.466;2022-11-30T16:26:31;6.60;99.90
21149;DHT22;10732;51.472;6.466;2022-11-30T16:28:56;6.60;99.90
21149;DHT22;10732;51.472;6.466;2022-11-30T16:31:23;6.70;99.90
21149;DHT22;10732;51.472;6.466;2022-11-30T16:33:49;6.70;99.90
21149;DHT22;10732;51.472;6.466;2022-11-30T16:36:17;6.60;99.90
21149;DHT22;10732;51.472;6.466;2022-11-30T16:38:47;6.60;99.90
21149;DHT22;10732;51.472;6.466;2022-11-30T16:41:20;6.60;99.90
21149;DHT22;10732;51.472;6.466;2022-11-30T16:43:48;6.70;99.90
21149;DHT22;10732;51.472;6.466;2022-11-30T16:46:17;6.60;99.90
21149;DHT22;10732;51.472;6.466;2022-11-30T16:48:43;6.60;99.90
21149;DHT22;10732;51.472;6.466;2022-11-30T16:51:22;6.70;99.90
21149;DHT22;10732;51.472;6.466;2022-11-30T16:53:48;6.60;99.90
21149;DHT22;10732;51.472;6.466;2022-11-30T16:56:14;6.70;99.90
21149;DHT22;10732;51.472;6.466;2022-11-30T16:58:41;6.70;99.90
21149;DHT22;10732;51.472;6.466;2022-11-30T17:01:12;6.60;99.90
21149;DHT22;10732;51.472;6.466;2022-11-30T17:03:39;6.60;99.90
21149;DHT22;10732;51.472;6.466;2022-11-30T17:06:05;6.50;99.90
21149;DHT22;10732;51.472;6.466;2022-11-30T17:08:33;6.50;99.90
21149;DHT22;10732;51.472;6.466;2022-11-30T17:10:59;6.50;99.90
21149;DHT22;10732;51.472;6.466;2022-11-30T17:13:25;6.40;99.90
21149;DHT22;10732;51.472;6.466;2022-11-30T17:15:50;6.40;99.90
21149;DHT22;10732;51.472;6.466;2022-11-30T17:18:16;6.30;99.90
21149;DHT22;10732;51.472;6.466;2022-11-30T17:20:41;6.40;99.90
21149;DHT22;10732;51.472;6.466;2022-11-30T17:23:07;6.40;99.90
21149;DHT22;10732;51.472;6.466;2022-11-30T17:25:33;6.40;99.90
21149;DHT22;10732;51.472;6.466;2022-11-30T17:27:59;6.40;99.90
21149;DHT22;10732;51.472;6.466;2022-11-30T17:30:25;6.40;99.90
21149;DHT22;10732;51.472;6.466;2022-11-30T17:32:50;6.30;99.90
21149;DHT22;10732;51.472;6.466;2022-11-30T17:35:17;6.30;99.90
21149;DHT22;10732;51.472;6.466;2022-11-30T17:37:42;6.40;99.90
21149;DHT22;10732;51.472;6.466;2022-11-30T17:40:09;6.30;99.90
21149;DHT22;10732;51.472;6.466;2022-11-30T17:42:40;6.30;99.90
21149;DHT22;10732;51.472;6.466;2022-11-30T17:45:06;6.40;99.90
21149;DHT22;10732;51.472;6.466;2022-11-30T17:47:32;6.30;99.90